Time;durP1;ratioP1;P1;durP2;ratioP2;P2;SDS_P1;SDS_P2;PMS_P1;PMS_P2;Temp;Humidity;BMP_temperature;BMP_pressure;BME280_temperature;BME280_humidity;BME280_pressure;Samples;Min_cycle;Max_cycle;Signal;HPM_P1;HPM_P2
2022/03/09 00:06:39;;;;;;;24.02;14.50;;;;;;;-0.95;73.70;100572.02;1808989;79;21283;-56
2022/03/09 00:09:51;;;;;;;24.35;16.40;;;;;;;-0.91;73.66;100569.50;1808990;78;21263;-57
2022/03/09 00:13:27;;;;;;;26.33;17.40;;;;;;;-0.94;73.74;100566.54;1809119;79;21737;-56
2022/03/09 00:17:08;;;;;;;27.35;17.65;;;;;;;-0.94;73.88;100565.20;1809178;79;21161;-56
2022/03/09 00:20:33;;;;;;;27.40;17.27;;;;;;;-0.94;73.85;100558.48;1809221;78;21402;-57
2022/03/09 00:24:14;;;;;;;24.07;16.20;;;;;;;-0.95;73.96;100558.08;1809211;78;21310;-56
2022/03/09 00:31:19;;;;;;;28.23;17.27;;;;;;;-0.97;73.61;100553.78;1814468;79;21214;-56
2022/03/09 00:34:43;;;;;;;26.02;17.80;;;;;;;-1.01;73.58;100568.35;1809028;78;21227;-56
2022/03/09 00:41:24;;;;;;;26.70;17.90;;;;;;;-1.12;73.55;100574.89;1707715;84;21248;-57
2022/03/09 00:47:44;;;;;;;28.00;17.23;;;;;;;-1.26;73.85;100572.22;1736738;82;21176;-57
2022/03/09 00:50:57;;;;;;;30.08;18.30;;;;;;;-1.19;73.97;100560.98;1846568;76;22274;-57
2022/03/09 01:00:53;;;;;;;29.10;17.35;;;;;;;-1.31;74.15;100575.67;1843332;76;22882;-56
2022/03/09 01:04:27;;;;;;;29.25;18.37;;;;;;;-1.41;74.32;100586.63;1801992;78;21189;-56
2022/03/09 01:07:35;;;;;;;30.25;17.62;;;;;;;-1.47;74.38;100591.88;1802082;79;21323;-56
2022/03/09 01:14:27;;;;;;;29.00;17.20;;;;;;;-1.63;74.98;100588.41;1772535;79;21213;-56
2022/03/09 01:25:05;;;;;;;28.90;18.55;;;;;;;-1.54;75.52;100594.58;1861543;76;22790;-57
2022/03/09 01:34:58;;;;;;;31.75;19.67;;;;;;;-1.48;75.91;100601.38;1860479;76;22293;-57
2022/03/09 01:38:11;;;;;;;30.10;18.57;;;;;;;-1.41;75.88;100598.20;1876077;76;22289;-56
2022/03/09 01:41:37;;;;;;;31.80;20.00;;;;;;;-1.45;75.51;100598.50;1855768;76;22269;-56
2022/03/09 01:45:08;;;;;;;31.90;18.73;;;;;;;-1.59;75.32;100599.36;1858502;76;22253;-56
2022/03/09 01:51:41;;;;;;;32.45;19.40;;;;;;;-1.84;75.30;100597.30;1801940;79;21189;-56
2022/03/09 01:54:47;;;;;;;31.77;19.62;;;;;;;-1.98;75.62;100606.66;1801764;78;21204;-57
2022/03/09 01:58:01;;;;;;;29.80;19.52;;;;;;;-1.96;75.74;100599.86;1801948;79;21181;-57
2022/03/09 02:04:50;;;;;;;26.90;18.48;;;;;;;-2.05;75.60;100610.67;1769758;79;21193;-58
2022/03/09 02:18:47;;;;;;;28.05;18.92;;;;;;;-1.88;75.50;100611.87;1790648;80;21178;-56
2022/03/09 02:26:42;;;;;;;31.27;19.37;;;;;;;-1.85;75.16;100621.06;1789297;78;21209;-56
2022/03/09 02:30:23;;;;;;;29.20;18.90;;;;;;;-1.81;74.99;100627.13;1778992;79;21244;-55
2022/03/09 02:33:53;;;;;;;31.80;19.95;;;;;;;-1.74;74.84;100617.72;1856096;74;22243;-56
2022/03/09 02:37:19;;;;;;;32.53;21.02;;;;;;;-1.76;74.64;100623.69;1919327;74;22237;-55
2022/03/09 02:44:22;;;;;;;30.40;19.37;;;;;;;-1.82;74.49;100630.27;1846949;76;22926;-56
2022/03/09 02:47:34;;;;;;;34.75;20.92;;;;;;;-1.88;74.54;100628.42;1834509;78;21192;-57
2022/03/09 02:57:38;;;;;;;32.75;21.48;;;;;;;-2.06;74.45;100639.77;1824156;77;21200;-57
2022/03/09 03:05:02;;;;;;;36.65;21.77;;;;;;;-2.15;74.74;100643.00;1817832;78;21192;-55
2022/03/09 03:08:16;;;;;;;34.23;22.55;;;;;;;-2.06;74.77;100631.72;1858514;76;22184;-56
2022/03/09 03:11:23;;;;;;;34.50;21.25;;;;;;;-2.11;74.76;100643.20;1708502;82;21184;-56
2022/03/09 03:14:31;;;;;;;37.67;24.90;;;;;;;-2.14;74.74;100640.70;1764096;80;21154;-55
2022/03/09 03:20:54;;;;;;;41.65;26.45;;;;;;;-2.24;74.77;100640.87;1783813;80;21228;-55
2022/03/09 03:28:28;;;;;;;43.48;28.38;;;;;;;-2.23;75.11;100641.24;1774072;80;21150;-57
2022/03/09 03:31:43;;;;;;;48.60;26.17;;;;;;;-2.21;75.06;100643.83;1773454;80;21216;-57
2022/03/09 03:34:51;;;;;;;39.98;26.55;;;;;;;-2.17;75.09;100638.20;1758282;80;21225;-57
2022/03/09 03:48:35;;;;;;;42.15;25.85;;;;;;;-2.18;75.04;100641.84;1876064;76;22577;-56
2022/03/09 03:51:34;;;;;;;43.98;27.20;;;;;;;-2.17;75.18;100638.70;1746225;81;21201;-55
2022/03/09 03:54:40;;;;;;;41.75;26.07;;;;;;;-2.08;75.05;100638.98;1787371;80;21235;-56
2022/03/09 03:57:26;;;;;;;34.67;23.40;;;;;;;-2.00;75.05;100635.38;1742917;81;21197;-57
2022/03/09 04:00:51;;;;;;;45.33;26.35;;;;;;;-1.93;74.95;100643.92;1812582;79;21192;-57
2022/03/09 04:14:58;;;;;;;40.20;25.35;;;;;;;-1.74;74.25;100643.22;1787606;79;21169;-56
2022/03/09 04:18:24;;;;;;;40.92;24.23;;;;;;;-1.68;74.62;100642.38;1871551;76;22215;-56
2022/03/09 04:21:26;;;;;;;35.90;22.50;;;;;;;-1.68;74.60;100642.38;1802197;79;21877;-56
2022/03/09 04:27:27;;;;;;;35.95;23.55;;;;;;;-1.70;74.34;100648.80;1801962;79;21177;-57
2022/03/09 04:34:32;;;;;;;;;;;;;;;-1.77;74.55;100644.27;1804601;79;21267;-56
2022/03/09 04:42:16;;;;;;;35.55;20.02;;;;;;;-1.62;74.89;100648.70;1801707;79;21189;-55
2022/03/09 04:45:24;;;;;;;31.42;20.12;;;;;;;-1.48;74.94;100645.66;1802181;79;21702;-55
2022/03/09 04:51:26;;;;;;;31.57;20.23;;;;;;;-1.31;74.58;100650.38;1799379;79;21149;-55
2022/03/09 04:59:07;;;;;;;33.63;20.48;;;;;;;-1.26;74.13;100656.80;1805864;79;21172;-55
2022/03/09 05:02:48;;;;;;;30.05;19.02;;;;;;;-1.26;74.03;100651.44;1742160;81;21201;-55
2022/03/09 05:09:29;;;;;;;26.85;18.27;;;;;;;-1.22;73.82;100664.57;1836320;76;22734;-56
2022/03/09 05:19:47;;;;;;;27.73;17.32;;;;;;;-0.99;73.70;100668.52;1742083;82;21227;-55
2022/03/09 05:23:47;;;;;;;25.30;16.10;;;;;;;-0.97;73.96;100674.20;1742284;81;21320;-55
2022/03/09 05:27:29;;;;;;;27.65;16.67;;;;;;;-0.96;74.39;100670.54;1741447;82;21151;-55
2022/03/09 05:31:09;;;;;;;27.25;16.12;;;;;;;-0.85;74.73;100674.75;1735488;82;21352;-55
2022/03/09 05:34:25;;;;;;;30.65;17.60;;;;;;;-0.84;74.18;100663.03;1740957;82;21746;-56
2022/03/09 05:37:51;;;;;;;24.93;20.50;;;;;;;-0.87;74.60;100665.92;1845677;75;28629;-55
2022/03/09 05:41:30;;;;;;;23.07;16.37;;;;;;;-0.87;75.01;100667.27;1789877;77;21379;-56
2022/03/09 05:44:42;;;;;;;30.30;18.62;;;;;;;-0.88;75.34;100688.85;1786170;76;21185;-55
2022/03/09 05:48:08;;;;;;;23.45;15.13;;;;;;;-0.78;75.85;100685.98;1848066;75;22220;-55
2022/03/09 05:54:28;;;;;;;25.77;15.53;;;;;;;-0.82;75.17;100699.21;1826152;76;21681;-56
2022/03/09 05:57:41;;;;;;;22.70;13.03;;;;;;;-0.80;74.56;100704.02;1857197;76;22610;-56
2022/03/09 06:04:38;;;;;;;22.70;14.98;;;;;;;-0.66;74.28;100699.50;1765498;79;21197;-57
2022/03/09 06:10:59;;;;;;;23.12;15.90;;;;;;;-0.39;72.28;100706.27;1773439;80;21220;-57
2022/03/09 06:18:12;;;;;;;23.98;14.70;;;;;;;0.09;70.53;100712.95;1828997;75;22795;-58
2022/03/09 06:24:43;;;;;;;24.43;15.93;;;;;;;0.23;69.23;100720.97;1771071;76;21212;-57
2022/03/09 06:27:55;;;;;;;25.02;16.20;;;;;;;0.31;68.61;100714.59;1787283;77;21320;-57
2022/03/09 06:41:57;;;;;;;19.55;14.13;;;;;;;0.92;65.57;100708.94;1737071;82;20578;-56
2022/03/09 06:45:36;;;;;;;19.32;13.53;;;;;;;0.78;65.26;100718.94;1787976;77;21232;-56
2022/03/09 06:48:42;;;;;;;21.52;13.20;;;;;;;0.69;65.12;100729.89;1776604;77;21750;-55
2022/03/09 06:51:56;;;;;;;20.90;12.43;;;;;;;0.49;64.84;100711.52;1875222;76;22269;-55
2022/03/09 06:55:25;;;;;;;21.48;14.63;;;;;;;0.58;64.69;100717.64;1838203;76;22745;-56
2022/03/09 06:58:27;;;;;;;17.55;11.53;;;;;;;0.51;64.55;100712.78;1771945;80;21177;-57
2022/03/09 07:01:30;;;;;;;19.20;12.78;;;;;;;0.59;64.01;100713.97;1769691;80;21197;-60
2022/03/09 07:07:53;;;;;;;17.62;11.40;;;;;;;0.69;63.16;100713.72;1759200;80;21517;-57
2022/03/09 07:21:54;;;;;;;16.27;10.65;;;;;;;1.03;61.66;100713.59;1775581;79;21229;-56
2022/03/09 07:25:01;;;;;;;16.12;11.53;;;;;;;1.23;61.62;100709.88;1766152;78;21775;-57
2022/03/09 07:28:25;;;;;;;18.45;12.73;;;;;;;1.33;61.56;100710.08;1733525;81;21702;-56
2022/03/09 07:35:46;;;;;;;;;;;;;;;1.54;61.70;100706.69;1723149;79;21235;-57
2022/03/09 07:46:27;;;;;;;15.18;10.48;;;;;;;1.53;61.09;100705.45;1773964;80;21199;-56
2022/03/09 08:01:24;;;;;;;14.13;9.45;;;;;;;1.52;60.59;100715.36;1781351;78;21187;-58
2022/03/09 08:04:49;;;;;;;15.38;10.40;;;;;;;1.46;60.30;100710.42;1762810;80;21277;-58
2022/03/09 08:07:58;;;;;;;17.67;11.45;;;;;;;1.49;60.25;100709.35;1752781;78;21235;-56
2022/03/09 08:12:01;;;;;;;15.00;10.65;;;;;;;1.55;60.40;100720.53;1775378;78;21286;-58
2022/03/09 08:19:19;;;;;;;13.98;10.05;;;;;;;2.02;59.65;100711.67;1873643;76;22758;-56
2022/03/09 08:33:19;;;;;;;11.53;8.70;;;;;;;1.93;58.13;100697.52;1856748;76;22865;-57
2022/03/09 08:36:26;;;;;;;13.45;9.15;;;;;;;2.01;58.60;100714.48;1685244;84;21254;-57
2022/03/09 08:45:39;;;;;;;13.80;9.20;;;;;;;2.24;57.97;100719.02;1764922;81;21600;-59
2022/03/09 08:48:32;;;;;;;15.65;9.18;;;;;;;2.30;58.08;100715.37;1740535;81;21196;-56
2022/03/09 08:51:37;;;;;;;12.37;8.80;;;;;;;2.48;58.13;100715.83;1742515;81;21621;-56
2022/03/09 08:54:43;;;;;;;11.70;8.53;;;;;;;2.49;57.64;100722.97;1745850;81;21609;-58
2022/03/09 08:57:50;;;;;;;13.30;8.28;;;;;;;2.36;56.99;100732.97;1750544;81;21199;-57
2022/03/09 09:00:56;;;;;;;12.98;8.23;;;;;;;2.20;57.50;100717.55;1751720;81;21193;-55
2022/03/09 09:04:01;;;;;;;11.00;7.30;;;;;;;2.21;58.21;100732.75;1754126;80;21667;-57
2022/03/09 09:07:08;;;;;;;14.45;9.95;;;;;;;2.06;58.21;100732.56;1748352;81;21747;-58
2022/03/09 09:10:14;;;;;;;16.07;9.95;;;;;;;1.75;59.22;100735.29;1751873;80;21203;-57
2022/03/09 09:13:20;;;;;;;20.48;12.07;;;;;;;1.93;59.96;100731.73;1744806;80;21196;-58
2022/03/09 09:16:25;;;;;;;18.27;11.25;;;;;;;2.19;60.06;100752.28;1749339;81;21196;-57
2022/03/09 09:19:33;;;;;;;29.23;14.00;;;;;;;2.29;59.13;100747.90;1757283;80;22072;-56
2022/03/09 09:22:42;;;;;;;29.37;12.63;;;;;;;2.25;58.84;100742.37;1752380;81;21170;-57
2022/03/09 09:25:50;;;;;;;28.42;11.90;;;;;;;2.17;60.75;100746.13;1758656;80;21249;-56
2022/03/09 09:28:57;;;;;;;28.05;13.08;;;;;;;2.31;60.45;100750.88;1760742;81;21196;-57
2022/03/09 09:32:03;;;;;;;23.85;12.25;;;;;;;2.35;59.32;100751.48;1740077;81;21272;-58
2022/03/09 09:35:12;;;;;;;20.45;11.00;;;;;;;2.17;59.44;100742.08;1737950;82;21204;-57
2022/03/09 09:38:19;;;;;;;18.82;9.75;;;;;;;2.18;60.17;100749.19;1732037;82;21203;-57
2022/03/09 09:41:26;;;;;;;19.67;10.30;;;;;;;2.16;60.41;100743.91;1738307;82;21192;-56
2022/03/09 09:44:32;;;;;;;27.32;12.65;;;;;;;1.90;60.94;100748.16;1740299;82;21287;-58
2022/03/09 09:47:39;;;;;;;29.90;13.78;;;;;;;1.64;61.55;100755.44;1730608;82;21177;-59
2022/03/09 09:50:51;;;;;;;24.43;11.25;;;;;;;1.57;62.09;100747.40;1739591;82;21786;-56
2022/03/09 09:53:58;;;;;;;17.17;10.13;;;;;;;1.50;62.23;100765.89;1752613;82;21200;-57
2022/03/09 09:57:03;;;;;;;24.50;13.88;;;;;;;1.53;63.33;100767.02;1738426;81;22102;-58
2022/03/09 10:00:08;;;;;;;19.95;11.65;;;;;;;1.79;64.03;100746.73;1738458;82;21848;-59
2022/03/09 10:03:15;;;;;;;19.90;13.48;;;;;;;2.02;63.08;100758.04;1738440;82;21543;-54
2022/03/09 10:06:23;;;;;;;19.70;11.75;;;;;;;2.15;62.20;100753.47;1743974;81;21201;-54
2022/03/09 10:09:31;;;;;;;13.72;9.28;;;;;;;2.29;61.39;100754.17;1740111;82;21212;-56
2022/03/09 10:12:37;;;;;;;15.15;9.75;;;;;;;2.43;60.37;100750.42;1733810;82;21785;-54
2022/03/09 10:15:43;;;;;;;12.20;8.38;;;;;;;2.43;59.62;100751.30;1739779;82;21221;-54
2022/03/09 10:19:01;;;;;;;11.40;7.72;;;;;;;2.50;59.12;100763.86;1738342;82;21158;-56
2022/03/09 10:22:06;;;;;;;16.02;9.15;;;;;;;2.25;59.35;100758.06;1740311;82;21233;-55
2022/03/09 10:25:24;;;;;;;16.87;10.65;;;;;;;1.96;60.07;100765.25;1738423;82;21852;-55
2022/03/09 10:28:31;;;;;;;20.82;12.60;;;;;;;2.02;60.81;100758.04;1766745;80;21248;-54
2022/03/09 10:31:57;;;;;;;15.65;10.05;;;;;;;2.40;60.60;100766.87;1770927;80;21189;-55
2022/03/09 10:35:01;;;;;;;13.93;7.60;;;;;;;2.53;58.92;100759.09;1767223;80;21248;-56
2022/03/09 10:38:15;;;;;;;17.85;11.90;;;;;;;2.52;57.69;100768.16;1760572;81;21189;-55
2022/03/09 10:41:21;;;;;;;11.22;8.15;;;;;;;2.51;57.25;100754.77;1761456;81;21193;-56
2022/03/09 10:44:32;;;;;;;18.98;12.15;;;;;;;2.59;57.06;100757.27;1702664;82;21746;-53
2022/03/09 10:47:54;;;;;;;18.20;11.80;;;;;;;2.53;57.06;100759.57;1739081;82;21240;-55
2022/03/09 10:51:01;;;;;;;31.75;15.15;;;;;;;2.38;57.60;100766.14;1710863;84;21318;-56
2022/03/09 10:54:22;;;;;;;16.87;10.20;;;;;;;2.30;58.46;100769.39;1739683;82;21777;-56
2022/03/09 10:57:31;;;;;;;15.08;10.20;;;;;;;2.41;58.29;100767.27;1740401;82;21249;-56
2022/03/09 11:01:00;;;;;;;16.02;9.65;;;;;;;2.68;57.01;100761.97;1740229;81;21222;-55
2022/03/09 11:04:21;;;;;;;12.05;8.35;;;;;;;2.76;55.78;100762.25;1741523;81;21209;-55
2022/03/09 11:07:31;;;;;;;12.63;8.88;;;;;;;2.89;55.45;100779.73;1737944;82;21825;-56
2022/03/09 11:10:38;;;;;;;11.95;9.00;;;;;;;2.88;55.11;100773.97;1738368;82;21283;-59
2022/03/09 11:13:46;;;;;;;12.50;8.73;;;;;;;2.85;54.86;100772.34;1738291;82;21834;-56
2022/03/09 11:16:57;;;;;;;13.10;8.45;;;;;;;2.96;55.14;100765.66;1768171;81;21221;-56
2022/03/09 11:20:04;;;;;;;14.20;7.80;;;;;;;3.03;54.61;100763.30;1770273;80;21225;-58
2022/03/09 11:23:09;;;;;;;12.45;8.70;;;;;;;3.03;54.21;100765.53;1755128;80;21217;-57
2022/03/09 11:26:25;;;;;;;14.75;8.70;;;;;;;3.12;54.15;100776.14;1740392;81;21223;-57
2022/03/09 11:29:41;;;;;;;12.75;9.15;;;;;;;3.27;54.09;100769.52;1735951;82;21236;-56
2022/03/09 11:32:47;;;;;;;13.70;8.25;;;;;;;3.39;53.02;100752.33;1736295;82;21713;-57
2022/03/09 11:35:54;;;;;;;11.90;8.30;;;;;;;3.61;52.99;100771.77;1740604;82;21228;-57
2022/03/09 11:39:13;;;;;;;11.33;8.30;;;;;;;4.09;52.53;100755.63;1736062;82;21196;-56
2022/03/09 11:42:33;;;;;;;15.65;8.53;;;;;;;4.51;51.99;100758.84;1743339;82;21729;-56
2022/03/09 11:45:40;;;;;;;15.18;8.65;;;;;;;4.66;50.69;100779.75;1736338;82;21180;-55
2022/03/09 11:49:01;;;;;;;13.40;8.75;;;;;;;4.74;51.98;100767.77;1743190;82;21401;-56
2022/03/09 11:52:24;;;;;;;10.95;8.28;;;;;;;4.91;54.03;100786.17;1735604;82;21224;-58
2022/03/09 11:55:32;;;;;;;12.18;8.48;;;;;;;4.47;54.11;100766.36;1742415;82;21338;-55
2022/03/09 11:58:37;;;;;;;11.90;8.18;;;;;;;3.70;55.94;100789.98;1717156;82;21717;-56
2022/03/09 12:02:09;;;;;;;12.23;8.60;;;;;;;3.26;56.99;100789.45;1771564;80;21193;-56
2022/03/09 12:05:37;;;;;;;11.57;8.30;;;;;;;2.86;57.84;100798.42;1772277;80;21252;-56
2022/03/09 12:08:53;;;;;;;14.98;7.95;;;;;;;2.61;59.11;100799.91;1743027;82;21243;-57
2022/03/09 12:12:16;;;;;;;12.50;8.83;;;;;;;2.73;59.62;100800.33;1744207;81;21201;-56
2022/03/09 12:15:24;;;;;;;11.78;8.83;;;;;;;2.98;59.41;100808.80;1765489;81;21200;-59
2022/03/09 12:19:01;;;;;;;11.15;9.03;;;;;;;3.10;58.44;100791.61;1761632;81;21197;-59
2022/03/09 12:22:10;;;;;;;11.43;8.63;;;;;;;3.23;58.14;100798.28;1772171;80;21634;-57
2022/03/09 12:25:50;;;;;;;12.07;8.33;;;;;;;3.54;57.07;100797.59;1772366;80;21260;-57
2022/03/09 12:28:56;;;;;;;12.40;8.90;;;;;;;3.56;56.53;100801.92;1757163;80;21248;-57
2022/03/09 12:32:13;;;;;;;11.18;8.18;;;;;;;3.58;56.63;100787.78;1748673;81;21755;-57
2022/03/09 12:35:19;;;;;;;13.78;10.40;;;;;;;3.70;56.99;100793.56;1748471;80;21291;-58
2022/03/09 12:38:26;;;;;;;12.95;7.90;;;;;;;3.67;56.88;100808.70;1749195;81;21751;-59
2022/03/09 12:41:41;;;;;;;13.60;9.10;;;;;;;3.44;56.55;100809.63;1740414;82;21775;-59
2022/03/09 12:44:53;;;;;;;11.73;8.58;;;;;;;3.33;56.47;100812.83;1741800;82;21276;-58
2022/03/09 12:48:16;;;;;;;11.38;8.83;;;;;;;3.35;57.21;100825.24;1744869;81;21175;-61
2022/03/09 12:51:22;;;;;;;12.13;9.00;;;;;;;3.20;56.81;100803.45;1741952;82;21742;-55
2022/03/09 12:54:46;;;;;;;12.33;8.73;;;;;;;3.06;57.23;100813.97;1742540;82;21190;-51
2022/03/09 12:57:55;;;;;;;12.07;8.03;;;;;;;2.93;56.79;100821.80;1671210;84;21217;-58
2022/03/09 13:01:15;;;;;;;13.58;9.25;;;;;;;2.88;56.78;100829.39;1652502;85;21765;-58
2022/03/09 13:04:22;;;;;;;15.98;9.35;;;;;;;2.55;56.62;100835.47;1679066;84;22047;-58
2022/03/09 13:07:27;;;;;;;13.93;9.83;;;;;;;2.43;58.09;100826.06;1679861;84;21237;-57
2022/03/09 13:10:35;;;;;;;16.60;10.30;;;;;;;2.36;59.68;100839.67;1669800;84;21205;-58
2022/03/09 13:13:47;;;;;;;15.55;9.73;;;;;;;2.23;60.59;100822.63;1679161;84;21731;-57
2022/03/09 13:16:54;;;;;;;14.35;9.03;;;;;;;2.18;61.57;100838.30;1665624;86;21273;-57
2022/03/09 13:20:03;;;;;;;12.40;9.30;;;;;;;2.22;62.56;100838.47;1665691;86;21817;-59
2022/03/09 13:23:52;;;;;;;14.05;10.13;;;;;;;1.99;63.74;100839.26;1665779;86;21221;-59
2022/03/09 13:27:26;;;;;;;15.93;9.27;;;;;;;1.81;64.75;100840.09;1685632;84;21265;-58
2022/03/09 13:30:32;;;;;;;12.75;8.33;;;;;;;1.71;65.87;100840.39;1697997;84;21268;-57
2022/03/09 13:33:40;;;;;;;15.03;10.43;;;;;;;1.59;66.26;100840.39;1753549;81;21338;-56
2022/03/09 13:36:47;;;;;;;13.95;9.20;;;;;;;1.51;66.63;100853.92;1753396;81;21235;-58
2022/03/09 13:39:56;;;;;;;17.00;11.05;;;;;;;1.55;66.53;100858.12;1745797;81;21201;-58
2022/03/09 13:43:06;;;;;;;15.98;11.33;;;;;;;1.58;65.93;100844.05;1756304;81;21808;-57
2022/03/09 13:46:27;;;;;;;17.35;11.90;;;;;;;1.89;65.57;100844.45;1740513;82;21229;-57
2022/03/09 13:49:34;;;;;;;14.15;10.68;;;;;;;2.20;63.79;100839.06;1739488;81;21683;-59
2022/03/09 13:52:41;;;;;;;13.93;10.00;;;;;;;2.27;62.06;100852.00;1735756;82;21181;-58
2022/03/09 13:56:00;;;;;;;15.32;9.98;;;;;;;2.20;61.72;100852.09;1741023;81;21406;-57
2022/03/09 13:59:08;;;;;;;13.70;9.40;;;;;;;2.12;61.41;100863.05;1745953;81;21269;-57
2022/03/09 14:02:29;;;;;;;15.60;10.63;;;;;;;1.93;61.10;100847.80;1771687;80;21769;-57
2022/03/09 14:05:42;;;;;;;17.77;11.73;;;;;;;1.91;61.32;100857.84;1770654;80;21229;-56
2022/03/09 14:08:45;;;;;;;16.20;10.88;;;;;;;1.90;61.42;100853.42;1770672;80;21180;-58
2022/03/09 14:11:51;;;;;;;20.23;13.05;;;;;;;1.84;61.76;100860.11;1770187;80;21757;-56
2022/03/09 14:14:56;;;;;;;24.57;15.20;;;;;;;1.81;62.05;100859.48;1770201;80;21217;-58
2022/03/09 14:18:02;;;;;;;21.20;13.62;;;;;;;1.72;62.17;100859.64;1771218;80;21197;-58
2022/03/09 14:21:09;;;;;;;20.50;13.45;;;;;;;1.59;62.46;100856.58;1770832;80;21196;-57
2022/03/09 14:24:15;;;;;;;20.32;12.00;;;;;;;1.41;63.03;100870.36;1770202;80;21256;-58
2022/03/09 14:27:14;;;;;;;14.80;10.50;;;;;;;1.40;63.77;100869.98;1763211;81;21189;-57
2022/03/09 14:30:08;;;;;;;15.05;10.88;;;;;;;1.54;63.39;100873.06;1770823;80;21221;-57
2022/03/09 14:32:54;;;;;;;15.85;10.45;;;;;;;1.51;62.80;100881.37;1771376;80;21244;-58
2022/03/09 14:35:47;;;;;;;17.25;11.95;;;;;;;1.42;63.08;100890.11;1763038;81;22006;-59
2022/03/09 14:38:52;;;;;;;18.12;11.38;;;;;;;1.37;63.21;100889.56;1762152;80;21209;-57
2022/03/09 14:42:01;;;;;;;17.05;10.68;;;;;;;1.27;63.42;100900.58;1735398;80;21349;-55
2022/03/09 14:45:12;;;;;;;16.57;11.83;;;;;;;1.18;63.68;100901.22;1733906;83;21713;-60
2022/03/09 14:48:20;;;;;;;17.17;11.43;;;;;;;1.05;64.29;100897.14;1735458;81;21797;-57
2022/03/09 14:51:32;;;;;;;18.17;11.90;;;;;;;0.91;65.15;100907.11;1746307;81;21197;-56
2022/03/09 14:54:37;;;;;;;18.65;12.25;;;;;;;0.75;65.73;100913.13;1749528;81;21734;-58
2022/03/09 14:57:44;;;;;;;24.35;13.18;;;;;;;0.56;66.16;100909.44;1759412;81;21372;-57
2022/03/09 15:00:50;;;;;;;21.62;12.33;;;;;;;0.43;66.59;100913.05;1739341;82;21750;-57
2022/03/09 15:03:57;;;;;;;18.80;11.97;;;;;;;0.46;66.66;100913.69;1739477;81;21196;-58
2022/03/09 15:07:03;;;;;;;17.70;11.22;;;;;;;0.39;66.49;100921.80;1751687;81;21309;-57
2022/03/09 15:10:11;;;;;;;15.10;10.20;;;;;;;0.30;66.65;100926.44;1758742;81;21738;-58
2022/03/09 15:13:18;;;;;;;16.05;11.60;;;;;;;0.23;66.92;100926.42;1747948;81;21205;-59
2022/03/09 15:16:25;;;;;;;16.12;11.30;;;;;;;0.24;67.14;100929.99;1762915;81;21571;-59
2022/03/09 15:19:36;;;;;;;16.48;10.05;;;;;;;0.28;67.42;100935.55;1769624;80;21220;-58
2022/03/09 15:22:42;;;;;;;16.32;10.82;;;;;;;0.28;67.49;100946.32;1770020;80;21161;-58
2022/03/09 15:25:50;;;;;;;15.75;9.95;;;;;;;0.29;67.32;100946.22;1770557;80;21185;-59
2022/03/09 15:28:59;;;;;;;16.07;11.20;;;;;;;0.14;67.34;100945.86;1752589;81;21185;-59
2022/03/09 15:32:05;;;;;;;16.15;10.98;;;;;;;0.02;67.38;100959.22;1740045;82;21217;-57
2022/03/09 15:35:10;;;;;;;21.25;11.90;;;;;;;-0.09;67.58;100957.17;1739769;82;21829;-58
2022/03/09 15:38:18;;;;;;;18.20;11.38;;;;;;;-0.24;67.71;100966.20;1748396;80;21197;-57
2022/03/09 15:41:23;;;;;;;16.35;10.58;;;;;;;-0.31;68.26;100970.21;1751527;81;21195;-58
2022/03/09 15:44:28;;;;;;;19.02;11.05;;;;;;;-0.38;68.33;100974.25;1748978;81;21767;-57
2022/03/09 15:47:36;;;;;;;15.48;10.63;;;;;;;-0.47;68.68;100980.16;1745253;81;21211;-57
2022/03/09 15:50:44;;;;;;;16.50;10.88;;;;;;;-0.42;68.87;100988.34;1739183;82;21733;-57
2022/03/09 15:53:48;;;;;;;19.10;11.43;;;;;;;-0.34;68.99;100983.84;1739580;82;21240;-57
2022/03/09 15:56:55;;;;;;;17.98;11.03;;;;;;;-0.26;69.02;100989.63;1739347;82;21264;-58
2022/03/09 16:00:04;;;;;;;19.80;12.53;;;;;;;-0.24;68.96;100999.33;1739830;82;21821;-59
2022/03/09 16:03:08;;;;;;;18.48;11.83;;;;;;;-0.26;69.12;101013.84;1739910;82;21213;-58
2022/03/09 16:06:16;;;;;;;15.75;11.25;;;;;;;-0.26;69.43;101019.22;1745166;81;21735;-58
2022/03/09 16:09:23;;;;;;;17.55;11.95;;;;;;;-0.26;69.53;101023.25;1704520;84;21588;-58
2022/03/09 16:12:31;;;;;;;20.72;11.25;;;;;;;-0.30;69.63;101025.72;1674264;85;21252;-57
2022/03/09 16:15:36;;;;;;;18.10;12.45;;;;;;;-0.26;69.74;101034.02;1691192;85;21677;-57
2022/03/09 16:18:47;;;;;;;18.52;12.70;;;;;;;-0.25;69.57;101037.08;1690314;85;21277;-57
2022/03/09 16:21:52;;;;;;;19.73;12.60;;;;;;;-0.32;69.45;101043.80;1705710;84;21713;-57
2022/03/09 16:24:59;;;;;;;19.92;12.15;;;;;;;-0.42;69.34;101044.82;1693332;85;21292;-57
2022/03/09 16:28:05;;;;;;;16.73;11.33;;;;;;;-0.42;69.57;101052.02;1693331;85;21253;-56
2022/03/09 16:31:14;;;;;;;22.82;13.85;;;;;;;-0.41;69.17;101059.11;1693471;85;21245;-57
2022/03/09 16:34:19;;;;;;;15.30;10.63;;;;;;;-0.48;68.78;101055.95;1691681;84;21257;-58
2022/03/09 16:37:25;;;;;;;17.32;10.18;;;;;;;-0.56;68.18;101055.99;1706626;84;21272;-57
2022/03/09 16:40:35;;;;;;;16.27;10.90;;;;;;;-0.63;67.60;101068.04;1694152;82;21688;-58
2022/03/09 16:43:43;;;;;;;17.02;10.38;;;;;;;-0.67;67.35;101067.84;1740875;82;21268;-58
2022/03/09 16:46:49;;;;;;;19.57;11.10;;;;;;;-0.71;67.14;101077.02;1741204;82;21174;-59
2022/03/09 16:49:57;;;;;;;16.20;11.12;;;;;;;-0.81;67.22;101069.97;1740370;82;21205;-57
2022/03/09 16:53:03;;;;;;;19.00;11.20;;;;;;;-0.80;67.45;101073.06;1706653;83;21248;-59
2022/03/09 16:56:11;;;;;;;18.52;10.53;;;;;;;-0.82;67.41;101076.77;1740937;82;21209;-57
2022/03/09 16:59:18;;;;;;;17.00;12.03;;;;;;;-0.82;67.43;101080.80;1706670;83;21193;-58
2022/03/09 17:02:26;;;;;;;15.35;10.80;;;;;;;-0.79;67.41;101082.84;1740866;82;21207;-57
2022/03/09 17:05:33;;;;;;;17.20;11.22;;;;;;;-0.79;67.47;101080.16;1741520;82;21502;-57
2022/03/09 17:08:40;;;;;;;19.52;11.45;;;;;;;-0.75;67.62;101087.58;1706852;83;21165;-58
2022/03/09 17:11:47;;;;;;;15.75;10.65;;;;;;;-0.78;67.44;101083.25;1741420;82;21185;-58
2022/03/09 17:14:54;;;;;;;19.12;10.55;;;;;;;-0.86;66.90;101085.98;1706611;84;21405;-59
2022/03/09 17:18:00;;;;;;;16.73;10.63;;;;;;;-1.04;66.34;101087.00;1740971;82;21406;-58
2022/03/09 17:21:08;;;;;;;15.88;10.20;;;;;;;-1.13;66.27;101096.45;1740783;82;21201;-58
2022/03/09 17:24:13;;;;;;;15.43;9.38;;;;;;;-1.18;66.08;101096.30;1706561;84;21291;-57
2022/03/09 17:27:19;;;;;;;17.73;10.38;;;;;;;-1.18;65.99;101086.90;1741229;82;21178;-57
2022/03/09 17:30:24;;;;;;;13.88;9.75;;;;;;;-1.26;65.42;101095.85;1706759;83;21220;-58
2022/03/09 17:33:34;;;;;;;14.87;9.85;;;;;;;-1.40;65.48;101101.11;1741363;82;21284;-58
2022/03/09 17:36:41;;;;;;;15.83;9.95;;;;;;;-1.43;65.60;101103.97;1741186;82;21244;-57
2022/03/09 17:39:49;;;;;;;18.23;11.00;;;;;;;-1.44;65.60;101113.83;1740518;82;21337;-56
2022/03/09 17:42:55;;;;;;;15.23;9.98;;;;;;;-1.45;65.77;101116.59;1705848;82;21331;-57
2022/03/09 17:46:01;;;;;;;16.60;10.43;;;;;;;-1.41;65.67;101116.84;1740563;82;21177;-57
2022/03/09 17:49:08;;;;;;;12.98;9.43;;;;;;;-1.41;65.59;101126.23;1740943;82;21208;-57
2022/03/09 17:52:15;;;;;;;14.53;9.83;;;;;;;-1.43;65.44;101124.98;1740471;82;21185;-58
2022/03/09 17:55:20;;;;;;;14.38;8.73;;;;;;;-1.46;65.46;101133.20;1740918;82;21227;-57
2022/03/09 17:58:26;;;;;;;13.30;9.05;;;;;;;-1.45;65.46;101130.02;1740592;82;21233;-58
2022/03/09 18:01:33;;;;;;;14.15;8.60;;;;;;;-1.46;65.48;101134.55;1740754;82;21232;-57
2022/03/09 18:04:41;;;;;;;13.75;9.75;;;;;;;-1.43;65.44;101134.84;1740709;82;21220;-57
2022/03/09 18:07:49;;;;;;;13.53;8.48;;;;;;;-1.42;65.42;101133.41;1741140;82;21189;-58
2022/03/09 18:10:56;;;;;;;13.80;9.60;;;;;;;-1.40;65.31;101142.27;1740602;82;21185;-57
2022/03/09 18:14:05;;;;;;;13.90;8.80;;;;;;;-1.51;65.02;101150.87;1741171;82;21209;-58
2022/03/09 18:17:13;;;;;;;13.83;9.18;;;;;;;-1.66;65.32;101149.01;1740796;82;21173;-57
2022/03/09 18:20:19;;;;;;;13.48;9.15;;;;;;;-1.72;65.50;101158.73;1741122;82;21308;-58
2022/03/09 18:23:28;;;;;;;13.30;8.75;;;;;;;-1.79;65.74;101161.32;1734773;82;21225;-57